Terminal Aerodrome Forecast
Issued by NWS Greer, SC

Home | Current Version | Previous Version | Text Only | Print | Product List | Glossary On
Versions: 1 2 3 4 5 6 7 8 9 10 11 12 13 14 15 16 17 18 19 20 21 22 23 24 25 26 27 28 29 30 31 32 33 34
000
FTUS42 KGSP 270534
TAFAVL
TAF
KAVL 270534Z 2706/2806 00000KT 6SM BR BKN004 OVC060
     FM271000 VRB02KT 2SM BR VCSH OVC003
     FM271500 33006KT P6SM BKN050 PROB30 2716/2718 4SM -TSRA
      OVC025CB
     FM271800 29005KT 6SM -SHRA VCTS BKN050CB
     FM272100 31005KT P6SM BKN050 PROB30 2721/2724 4SM TSRA
      OVC025CB=

USA.gov is the U.S. government's official web portal to all federal, state and local government web resources and services.